sensor_id;sensor_type;location;lat;lon;timestamp;temperature;humidity
24103;DHT22;12278;53.058;9.028;2023-04-23T00:02:29;14.80;99.90
24103;DHT22;12278;53.058;9.028;2023-04-23T00:06:32;14.80;99.90
24103;DHT22;12278;53.058;9.028;2023-04-23T00:10:33;14.60;99.90
24103;DHT22;12278;53.058;9.028;2023-04-23T00:14:34;14.40;99.90
24103;DHT22;12278;53.058;9.028;2023-04-23T00:18:35;14.30;99.90
24103;DHT22;12278;53.058;9.028;2023-04-23T00:22:35;14.30;99.90
24103;DHT22;12278;53.058;9.028;2023-04-23T00:26:36;14.20;99.90
24103;DHT22;12278;53.058;9.028;2023-04-23T00:30:37;14.10;99.90
24103;DHT22;12278;53.058;9.028;2023-04-23T00:34:37;13.90;99.90
24103;DHT22;12278;53.058;9.028;2023-04-23T00:38:38;13.70;99.90
24103;DHT22;12278;53.058;9.028;2023-04-23T00:42:39;13.50;99.90
24103;DHT22;12278;53.058;9.028;2023-04-23T00:46:41;13.40;99.90
24103;DHT22;12278;53.058;9.028;2023-04-23T00:50:41;13.20;99.90
24103;DHT22;12278;53.058;9.028;2023-04-23T00:54:44;13.10;99.90
24103;DHT22;12278;53.058;9.028;2023-04-23T00:58:45;13.10;99.90
24103;DHT22;12278;53.058;9.028;2023-04-23T01:02:47;13.10;99.90
24103;DHT22;12278;53.058;9.028;2023-04-23T01:06:49;13.10;99.90
24103;DHT22;12278;53.058;9.028;2023-04-23T01:10:50;13.00;99.90
24103;DHT22;12278;53.058;9.028;2023-04-23T01:14:51;13.00;99.90
24103;DHT22;12278;53.058;9.028;2023-04-23T01:18:52;12.90;99.90
24103;DHT22;12278;53.058;9.028;2023-04-23T01:22:53;12.90;99.90
24103;DHT22;12278;53.058;9.028;2023-04-23T01:26:54;13.00;99.90
24103;DHT22;12278;53.058;9.028;2023-04-23T01:30:55;13.00;99.90
24103;DHT22;12278;53.058;9.028;2023-04-23T01:34:56;12.80;99.90
24103;DHT22;12278;53.058;9.028;2023-04-23T01:38:57;12.50;99.90
24103;DHT22;12278;53.058;9.028;2023-04-23T01:42:59;12.50;99.90
24103;DHT22;12278;53.058;9.028;2023-04-23T01:47:01;12.40;99.90
24103;DHT22;12278;53.058;9.028;2023-04-23T01:51:02;12.30;99.90
24103;DHT22;12278;53.058;9.028;2023-04-23T01:55:03;12.30;99.90
24103;DHT22;12278;53.058;9.028;2023-04-23T01:59:03;12.30;99.90
24103;DHT22;12278;53.058;9.028;2023-04-23T02:03:04;12.30;99.90
24103;DHT22;12278;53.058;9.028;2023-04-23T02:07:05;12.20;99.90
24103;DHT22;12278;53.058;9.028;2023-04-23T02:11:06;12.10;99.90
24103;DHT22;12278;53.058;9.028;2023-04-23T02:15:07;12.00;99.90
24103;DHT22;12278;53.058;9.028;2023-04-23T02:19:08;12.10;99.90
24103;DHT22;12278;53.058;9.028;2023-04-23T02:23:09;12.00;99.90
24103;DHT22;12278;53.058;9.028;2023-04-23T02:27:10;12.00;99.90
24103;DHT22;12278;53.058;9.028;2023-04-23T02:31:11;12.00;99.90
24103;DHT22;12278;53.058;9.028;2023-04-23T02:35:12;12.00;99.90
24103;DHT22;12278;53.058;9.028;2023-04-23T02:39:12;12.10;99.90
24103;DHT22;12278;53.058;9.028;2023-04-23T02:43:13;12.10;99.90
24103;DHT22;12278;53.058;9.028;2023-04-23T02:47:14;12.00;99.90
24103;DHT22;12278;53.058;9.028;2023-04-23T02:51:14;11.90;99.90
24103;DHT22;12278;53.058;9.028;2023-04-23T02:55:15;11.90;99.90
24103;DHT22;12278;53.058;9.028;2023-04-23T02:59:16;11.90;99.90
24103;DHT22;12278;53.058;9.028;2023-04-23T03:03:16;11.60;99.90
24103;DHT22;12278;53.058;9.028;2023-04-23T03:07:17;11.50;99.90
24103;DHT22;12278;53.058;9.028;2023-04-23T03:11:18;11.30;99.90
24103;DHT22;12278;53.058;9.028;2023-04-23T03:15:18;11.30;99.90
24103;DHT22;12278;53.058;9.028;2023-04-23T03:19:20;11.40;99.90
24103;DHT22;12278;53.058;9.028;2023-04-23T03:23:20;11.50;99.90
24103;DHT22;12278;53.058;9.028;2023-04-23T03:27:21;11.40;99.90
24103;DHT22;12278;53.058;9.028;2023-04-23T03:31:22;11.30;99.90
24103;DHT22;12278;53.058;9.028;2023-04-23T03:35:23;11.20;99.90
24103;DHT22;12278;53.058;9.028;2023-04-23T03:39:24;11.10;99.90
24103;DHT22;12278;53.058;9.028;2023-04-23T03:43:25;11.10;99.90
24103;DHT22;12278;53.058;9.028;2023-04-23T03:47:26;11.10;99.90
24103;DHT22;12278;53.058;9.028;2023-04-23T03:51:26;11.10;99.90
24103;DHT22;12278;53.058;9.028;2023-04-23T03:55:27;11.00;99.90
24103;DHT22;12278;53.058;9.028;2023-04-23T03:59:28;11.00;99.90
24103;DHT22;12278;53.058;9.028;2023-04-23T04:03:28;10.90;99.90
24103;DHT22;12278;53.058;9.028;2023-04-23T04:07:29;10.90;99.90
24103;DHT22;12278;53.058;9.028;2023-04-23T04:11:30;10.80;99.90
24103;DHT22;12278;53.058;9.028;2023-04-23T04:15:30;10.70;99.90
24103;DHT22;12278;53.058;9.028;2023-04-23T04:19:32;10.70;99.90
24103;DHT22;12278;53.058;9.028;2023-04-23T04:23:33;10.60;99.90
24103;DHT22;12278;53.058;9.028;2023-04-23T04:27:34;10.70;99.90
24103;DHT22;12278;53.058;9.028;2023-04-23T04:31:35;10.70;99.90
24103;DHT22;12278;53.058;9.028;2023-04-23T04:35:36;10.70;99.90
24103;DHT22;12278;53.058;9.028;2023-04-23T04:39:37;10.60;99.90
24103;DHT22;12278;53.058;9.028;2023-04-23T04:43:39;10.60;99.90
24103;DHT22;12278;53.058;9.028;2023-04-23T04:47:39;10.60;99.90
24103;DHT22;12278;53.058;9.028;2023-04-23T04:51:41;10.70;99.90
24103;DHT22;12278;53.058;9.028;2023-04-23T04:55:42;10.60;99.90
24103;DHT22;12278;53.058;9.028;2023-04-23T04:59:48;10.70;99.90
24103;DHT22;12278;53.058;9.028;2023-04-23T05:03:50;10.90;99.90
24103;DHT22;12278;53.058;9.028;2023-04-23T05:07:51;11.00;99.90
24103;DHT22;12278;53.058;9.028;2023-04-23T05:12:00;10.80;99.90
24103;DHT22;12278;53.058;9.028;2023-04-23T05:16:03;10.70;99.90
24103;DHT22;12278;53.058;9.028;2023-04-23T05:20:07;10.80;99.90
24103;DHT22;12278;53.058;9.028;2023-04-23T05:24:11;10.90;99.90
24103;DHT22;12278;53.058;9.028;2023-04-23T05:28:13;10.80;99.90
24103;DHT22;12278;53.058;9.028;2023-04-23T05:32:14;10.60;99.90
24103;DHT22;12278;53.058;9.028;2023-04-23T05:36:15;10.60;99.90
24103;DHT22;12278;53.058;9.028;2023-04-23T05:40:16;10.80;99.90
24103;DHT22;12278;53.058;9.028;2023-04-23T05:44:17;10.60;99.90
24103;DHT22;12278;53.058;9.028;2023-04-23T05:48:17;10.60;99.90
24103;DHT22;12278;53.058;9.028;2023-04-23T05:52:18;10.60;99.90
24103;DHT22;12278;53.058;9.028;2023-04-23T05:56:19;10.70;99.90
24103;DHT22;12278;53.058;9.028;2023-04-23T06:00:22;10.80;99.90
24103;DHT22;12278;53.058;9.028;2023-04-23T06:04:23;10.80;99.90
24103;DHT22;12278;53.058;9.028;2023-04-23T06:08:24;10.80;99.90
24103;DHT22;12278;53.058;9.028;2023-04-23T06:12:25;11.00;99.90
24103;DHT22;12278;53.058;9.028;2023-04-23T06:16:27;11.10;99.90
24103;DHT22;12278;53.058;9.028;2023-04-23T06:20:28;11.10;99.90
24103;DHT22;12278;53.058;9.028;2023-04-23T06:24:29;11.10;99.90
24103;DHT22;12278;53.058;9.028;2023-04-23T06:28:30;11.20;99.90
24103;DHT22;12278;53.058;9.028;2023-04-23T06:32:31;11.50;99.90
24103;DHT22;12278;53.058;9.028;2023-04-23T06:36:32;11.60;99.90
24103;DHT22;12278;53.058;9.028;2023-04-23T06:40:35;11.70;99.90
24103;DHT22;12278;53.058;9.028;2023-04-23T06:44:37;11.40;99.90
24103;DHT22;12278;53.058;9.028;2023-04-23T06:48:38;11.40;99.90
24103;DHT22;12278;53.058;9.028;2023-04-23T06:52:42;11.30;99.90
24103;DHT22;12278;53.058;9.028;2023-04-23T06:56:42;11.50;99.90
24103;DHT22;12278;53.058;9.028;2023-04-23T07:00:43;11.00;99.90
24103;DHT22;12278;53.058;9.028;2023-04-23T07:04:43;11.10;99.90
24103;DHT22;12278;53.058;9.028;2023-04-23T07:08:45;11.20;99.90
24103;DHT22;12278;53.058;9.028;2023-04-23T07:12:47;11.70;99.90
24103;DHT22;12278;53.058;9.028;2023-04-23T07:16:47;11.70;99.90
24103;DHT22;12278;53.058;9.028;2023-04-23T07:20:49;11.80;99.90
24103;DHT22;12278;53.058;9.028;2023-04-23T07:24:50;11.80;99.90
24103;DHT22;12278;53.058;9.028;2023-04-23T07:28:51;12.00;99.90
24103;DHT22;12278;53.058;9.028;2023-04-23T07:32:52;12.10;99.90
24103;DHT22;12278;53.058;9.028;2023-04-23T07:36:53;12.40;99.90
24103;DHT22;12278;53.058;9.028;2023-04-23T07:40:55;12.40;99.90
24103;DHT22;12278;53.058;9.028;2023-04-23T07:44:56;12.80;99.90
24103;DHT22;12278;53.058;9.028;2023-04-23T07:48:57;13.00;99.90
24103;DHT22;12278;53.058;9.028;2023-04-23T07:52:58;13.40;99.90
24103;DHT22;12278;53.058;9.028;2023-04-23T07:56:58;13.60;99.90
24103;DHT22;12278;53.058;9.028;2023-04-23T08:01:00;14.30;99.90
24103;DHT22;12278;53.058;9.028;2023-04-23T08:05:01;14.20;99.90
24103;DHT22;12278;53.058;9.028;2023-04-23T08:09:01;14.60;99.90
24103;DHT22;12278;53.058;9.028;2023-04-23T08:13:05;14.30;99.90
24103;DHT22;12278;53.058;9.028;2023-04-23T08:17:06;14.90;99.90
24103;DHT22;12278;53.058;9.028;2023-04-23T08:21:07;15.20;99.90
24103;DHT22;12278;53.058;9.028;2023-04-23T08:25:08;15.20;99.90
24103;DHT22;12278;53.058;9.028;2023-04-23T08:29:09;14.50;99.90
24103;DHT22;12278;53.058;9.028;2023-04-23T08:33:10;14.30;99.90
24103;DHT22;12278;53.058;9.028;2023-04-23T08:37:11;14.50;99.90
24103;DHT22;12278;53.058;9.028;2023-04-23T08:41:13;15.10;99.90
24103;DHT22;12278;53.058;9.028;2023-04-23T08:45:14;15.70;99.90
24103;DHT22;12278;53.058;9.028;2023-04-23T08:49:17;16.20;99.90
24103;DHT22;12278;53.058;9.028;2023-04-23T08:53:18;16.10;99.90
24103;DHT22;12278;53.058;9.028;2023-04-23T08:57:21;16.50;99.90
24103;DHT22;12278;53.058;9.028;2023-04-23T09:01:26;16.70;99.90
24103;DHT22;12278;53.058;9.028;2023-04-23T09:05:27;16.40;99.90
24103;DHT22;12278;53.058;9.028;2023-04-23T09:09:29;16.90;99.90
24103;DHT22;12278;53.058;9.028;2023-04-23T09:13:32;17.40;99.90
24103;DHT22;12278;53.058;9.028;2023-04-23T09:17:33;17.30;99.90
24103;DHT22;12278;53.058;9.028;2023-04-23T09:21:35;17.00;99.90
24103;DHT22;12278;53.058;9.028;2023-04-23T09:25:38;17.50;99.90
24103;DHT22;12278;53.058;9.028;2023-04-23T09:29:39;17.80;99.90
24103;DHT22;12278;53.058;9.028;2023-04-23T09:33:50;18.10;99.90
24103;DHT22;12278;53.058;9.028;2023-04-23T09:37:51;18.20;99.90
24103;DHT22;12278;53.058;9.028;2023-04-23T09:41:52;17.70;99.90
24103;DHT22;12278;53.058;9.028;2023-04-23T09:45:53;18.20;99.90
24103;DHT22;12278;53.058;9.028;2023-04-23T09:49:54;17.70;99.90
24103;DHT22;12278;53.058;9.028;2023-04-23T09:53:56;17.80;99.90
24103;DHT22;12278;53.058;9.028;2023-04-23T09:57:57;18.70;99.90
24103;DHT22;12278;53.058;9.028;2023-04-23T10:02:01;17.20;99.90
24103;DHT22;12278;53.058;9.028;2023-04-23T10:06:02;17.50;99.90
24103;DHT22;12278;53.058;9.028;2023-04-23T10:10:03;18.10;99.90
24103;DHT22;12278;53.058;9.028;2023-04-23T10:14:04;18.90;99.90
24103;DHT22;12278;53.058;9.028;2023-04-23T10:18:06;18.90;99.90
24103;DHT22;12278;53.058;9.028;2023-04-23T10:22:09;19.30;99.70
24103;DHT22;12278;53.058;9.028;2023-04-23T10:26:14;19.80;97.80
24103;DHT22;12278;53.058;9.028;2023-04-23T10:30:16;19.20;98.20
24103;DHT22;12278;53.058;9.028;2023-04-23T10:34:17;19.10;99.10
24103;DHT22;12278;53.058;9.028;2023-04-23T10:38:18;18.10;99.90
24103;DHT22;12278;53.058;9.028;2023-04-23T10:42:19;19.10;99.90
24103;DHT22;12278;53.058;9.028;2023-04-23T10:46:32;19.40;99.90
24103;DHT22;12278;53.058;9.028;2023-04-23T10:50:36;20.10;99.90
24103;DHT22;12278;53.058;9.028;2023-04-23T10:54:37;19.20;98.10
24103;DHT22;12278;53.058;9.028;2023-04-23T10:58:48;19.10;99.90
24103;DHT22;12278;53.058;9.028;2023-04-23T11:02:52;19.80;99.90
24103;DHT22;12278;53.058;9.028;2023-04-23T11:07:12;20.40;99.90
24103;DHT22;12278;53.058;9.028;2023-04-23T11:11:13;20.70;99.20
24103;DHT22;12278;53.058;9.028;2023-04-23T11:15:18;19.90;99.90
24103;DHT22;12278;53.058;9.028;2023-04-23T11:19:18;19.30;99.60
24103;DHT22;12278;53.058;9.028;2023-04-23T11:23:29;20.50;99.60
24103;DHT22;12278;53.058;9.028;2023-04-23T11:27:33;19.80;99.10
24103;DHT22;12278;53.058;9.028;2023-04-23T11:31:37;19.40;99.90
24103;DHT22;12278;53.058;9.028;2023-04-23T11:35:39;19.20;99.60
24103;DHT22;12278;53.058;9.028;2023-04-23T11:39:41;18.60;99.90
24103;DHT22;12278;53.058;9.028;2023-04-23T11:43:42;19.20;99.90
24103;DHT22;12278;53.058;9.028;2023-04-23T11:47:43;19.90;99.60
24103;DHT22;12278;53.058;9.028;2023-04-23T11:51:45;21.00;98.40
24103;DHT22;12278;53.058;9.028;2023-04-23T11:55:48;21.40;97.90
24103;DHT22;12278;53.058;9.028;2023-04-23T11:59:52;21.30;97.10
24103;DHT22;12278;53.058;9.028;2023-04-23T12:03:53;21.10;95.60
24103;DHT22;12278;53.058;9.028;2023-04-23T12:08:15;21.20;98.00
24103;DHT22;12278;53.058;9.028;2023-04-23T12:12:16;19.70;97.60
24103;DHT22;12278;53.058;9.028;2023-04-23T12:16:16;18.80;99.10
24103;DHT22;12278;53.058;9.028;2023-04-23T12:20:19;18.40;99.50
24103;DHT22;12278;53.058;9.028;2023-04-23T12:24:25;17.70;99.90
24103;DHT22;12278;53.058;9.028;2023-04-23T12:28:26;17.20;99.90
24103;DHT22;12278;53.058;9.028;2023-04-23T12:32:27;17.10;99.90
24103;DHT22;12278;53.058;9.028;2023-04-23T12:36:28;17.30;99.90
24103;DHT22;12278;53.058;9.028;2023-04-23T12:40:30;17.50;99.90
24103;DHT22;12278;53.058;9.028;2023-04-23T12:44:32;17.40;99.90
24103;DHT22;12278;53.058;9.028;2023-04-23T12:48:35;17.40;99.90
24103;DHT22;12278;53.058;9.028;2023-04-23T12:52:36;18.00;99.90
24103;DHT22;12278;53.058;9.028;2023-04-23T12:56:37;20.20;99.90
24103;DHT22;12278;53.058;9.028;2023-04-23T13:00:38;20.50;99.90
24103;DHT22;12278;53.058;9.028;2023-04-23T13:04:39;20.10;99.90
24103;DHT22;12278;53.058;9.028;2023-04-23T13:08:39;19.60;99.90
24103;DHT22;12278;53.058;9.028;2023-04-23T13:12:40;18.40;99.90
24103;DHT22;12278;53.058;9.028;2023-04-23T13:16:44;18.10;99.90
24103;DHT22;12278;53.058;9.028;2023-04-23T13:20:44;18.30;99.90
24103;DHT22;12278;53.058;9.028;2023-04-23T13:24:45;18.00;99.90
24103;DHT22;12278;53.058;9.028;2023-04-23T13:28:46;18.40;99.90
24103;DHT22;12278;53.058;9.028;2023-04-23T13:32:46;20.70;99.90
24103;DHT22;12278;53.058;9.028;2023-04-23T13:36:47;22.00;99.10
24103;DHT22;12278;53.058;9.028;2023-04-23T13:40:48;21.80;98.50
24103;DHT22;12278;53.058;9.028;2023-04-23T13:44:49;20.50;97.10
24103;DHT22;12278;53.058;9.028;2023-04-23T13:48:51;20.40;98.30
24103;DHT22;12278;53.058;9.028;2023-04-23T13:52:52;20.90;99.30
24103;DHT22;12278;53.058;9.028;2023-04-23T13:56:54;22.50;96.40
24103;DHT22;12278;53.058;9.028;2023-04-23T14:00:55;22.70;96.50
24103;DHT22;12278;53.058;9.028;2023-04-23T14:04:56;23.00;95.30
24103;DHT22;12278;53.058;9.028;2023-04-23T14:08:57;23.10;95.80
24103;DHT22;12278;53.058;9.028;2023-04-23T14:12:58;22.70;94.60
24103;DHT22;12278;53.058;9.028;2023-04-23T14:16:59;24.10;94.10
24103;DHT22;12278;53.058;9.028;2023-04-23T14:20:59;24.20;91.60
24103;DHT22;12278;53.058;9.028;2023-04-23T14:25:02;24.00;93.90
24103;DHT22;12278;53.058;9.028;2023-04-23T14:29:29;23.00;92.30
24103;DHT22;12278;53.058;9.028;2023-04-23T14:33:34;21.80;93.90
24103;DHT22;12278;53.058;9.028;2023-04-23T14:37:35;20.90;95.20
24103;DHT22;12278;53.058;9.028;2023-04-23T14:41:36;20.30;97.00
24103;DHT22;12278;53.058;9.028;2023-04-23T14:45:37;19.60;97.50
24103;DHT22;12278;53.058;9.028;2023-04-23T14:49:38;19.40;99.60
24103;DHT22;12278;53.058;9.028;2023-04-23T14:53:40;19.10;99.40
24103;DHT22;12278;53.058;9.028;2023-04-23T14:57:41;18.90;99.20
24103;DHT22;12278;53.058;9.028;2023-04-23T15:01:43;18.60;99.90
24103;DHT22;12278;53.058;9.028;2023-04-23T15:05:43;17.80;99.90
24103;DHT22;12278;53.058;9.028;2023-04-23T15:09:44;17.30;99.90
24103;DHT22;12278;53.058;9.028;2023-04-23T15:18:14;16.70;99.90
24103;DHT22;12278;53.058;9.028;2023-04-23T15:22:15;16.40;99.90
24103;DHT22;12278;53.058;9.028;2023-04-23T15:26:15;16.30;99.90
24103;DHT22;12278;53.058;9.028;2023-04-23T15:30:16;16.40;99.90
24103;DHT22;12278;53.058;9.028;2023-04-23T15:34:17;16.60;99.90
24103;DHT22;12278;53.058;9.028;2023-04-23T15:38:17;17.10;99.90
24103;DHT22;12278;53.058;9.028;2023-04-23T15:42:18;17.80;99.90
24103;DHT22;12278;53.058;9.028;2023-04-23T15:46:23;17.90;99.90
24103;DHT22;12278;53.058;9.028;2023-04-23T15:50:24;18.20;99.90
24103;DHT22;12278;53.058;9.028;2023-04-23T15:54:26;17.70;99.90
24103;DHT22;12278;53.058;9.028;2023-04-23T15:58:27;17.70;99.90
24103;DHT22;12278;53.058;9.028;2023-04-23T16:02:27;17.50;99.90
24103;DHT22;12278;53.058;9.028;2023-04-23T16:06:28;17.70;99.90
24103;DHT22;12278;53.058;9.028;2023-04-23T16:10:29;17.60;99.90
24103;DHT22;12278;53.058;9.028;2023-04-23T16:14:33;17.60;99.90
24103;DHT22;12278;53.058;9.028;2023-04-23T16:18:34;17.80;99.90
24103;DHT22;12278;53.058;9.028;2023-04-23T16:22:35;18.20;99.90
24103;DHT22;12278;53.058;9.028;2023-04-23T16:26:36;18.30;99.90
24103;DHT22;12278;53.058;9.028;2023-04-23T16:30:37;18.30;99.90
24103;DHT22;12278;53.058;9.028;2023-04-23T16:34:37;18.20;99.90
24103;DHT22;12278;53.058;9.028;2023-04-23T16:38:38;18.30;99.90
24103;DHT22;12278;53.058;9.028;2023-04-23T16:42:40;18.00;99.90
24103;DHT22;12278;53.058;9.028;2023-04-23T16:46:41;17.90;99.90
24103;DHT22;12278;53.058;9.028;2023-04-23T16:50:41;17.70;99.90
24103;DHT22;12278;53.058;9.028;2023-04-23T16:54:43;17.50;99.90
24103;DHT22;12278;53.058;9.028;2023-04-23T16:58:44;17.20;99.90
24103;DHT22;12278;53.058;9.028;2023-04-23T17:02:45;17.10;99.90
24103;DHT22;12278;53.058;9.028;2023-04-23T17:06:45;17.00;99.90
24103;DHT22;12278;53.058;9.028;2023-04-23T17:10:46;16.90;99.90
24103;DHT22;12278;53.058;9.028;2023-04-23T17:14:47;16.70;99.90
24103;DHT22;12278;53.058;9.028;2023-04-23T17:18:47;16.40;99.90
24103;DHT22;12278;53.058;9.028;2023-04-23T17:22:48;16.00;99.90
24103;DHT22;12278;53.058;9.028;2023-04-23T17:26:49;15.80;99.90
24103;DHT22;12278;53.058;9.028;2023-04-23T17:30:49;15.60;99.90
24103;DHT22;12278;53.058;9.028;2023-04-23T17:34:50;15.30;99.90
24103;DHT22;12278;53.058;9.028;2023-04-23T17:38:51;15.20;99.90
24103;DHT22;12278;53.058;9.028;2023-04-23T17:42:52;15.30;99.90
24103;DHT22;12278;53.058;9.028;2023-04-23T17:46:53;15.00;99.90
24103;DHT22;12278;53.058;9.028;2023-04-23T17:50:54;14.80;99.90
24103;DHT22;12278;53.058;9.028;2023-04-23T17:54:55;14.80;99.90
24103;DHT22;12278;53.058;9.028;2023-04-23T17:58:56;15.00;99.90
24103;DHT22;12278;53.058;9.028;2023-04-23T18:02:56;15.00;99.90
24103;DHT22;12278;53.058;9.028;2023-04-23T18:06:57;15.10;99.90
24103;DHT22;12278;53.058;9.028;2023-04-23T18:10:58;15.10;99.90
24103;DHT22;12278;53.058;9.028;2023-04-23T18:14:59;15.10;99.90
24103;DHT22;12278;53.058;9.028;2023-04-23T18:19:00;15.00;99.90
24103;DHT22;12278;53.058;9.028;2023-04-23T18:23:01;14.30;99.90
24103;DHT22;12278;53.058;9.028;2023-04-23T18:27:01;14.20;99.90
24103;DHT22;12278;53.058;9.028;2023-04-23T18:31:03;14.10;99.90
24103;DHT22;12278;53.058;9.028;2023-04-23T18:35:04;14.10;99.90
24103;DHT22;12278;53.058;9.028;2023-04-23T18:39:07;14.00;99.90
24103;DHT22;12278;53.058;9.028;2023-04-23T18:43:08;14.00;99.90
24103;DHT22;12278;53.058;9.028;2023-04-23T18:47:08;14.00;99.90
24103;DHT22;12278;53.058;9.028;2023-04-23T18:51:17;14.00;99.90
24103;DHT22;12278;53.058;9.028;2023-04-23T18:55:18;14.10;99.90
24103;DHT22;12278;53.058;9.028;2023-04-23T18:59:19;14.10;99.90
24103;DHT22;12278;53.058;9.028;2023-04-23T19:03:20;14.20;99.90
24103;DHT22;12278;53.058;9.028;2023-04-23T19:07:20;14.10;99.90
24103;DHT22;12278;53.058;9.028;2023-04-23T19:11:21;14.10;99.90
24103;DHT22;12278;53.058;9.028;2023-04-23T19:15:22;14.00;99.90
24103;DHT22;12278;53.058;9.028;2023-04-23T19:19:23;14.10;99.90
24103;DHT22;12278;53.058;9.028;2023-04-23T19:23:24;14.00;99.90
24103;DHT22;12278;53.058;9.028;2023-04-23T19:27:25;13.90;99.90
24103;DHT22;12278;53.058;9.028;2023-04-23T19:31:27;14.00;99.90
24103;DHT22;12278;53.058;9.028;2023-04-23T19:35:28;13.90;99.90
24103;DHT22;12278;53.058;9.028;2023-04-23T19:39:28;13.90;99.90
24103;DHT22;12278;53.058;9.028;2023-04-23T19:43:29;13.80;99.90
24103;DHT22;12278;53.058;9.028;2023-04-23T19:47:30;13.70;99.90
24103;DHT22;12278;53.058;9.028;2023-04-23T19:51:32;13.70;99.90
24103;DHT22;12278;53.058;9.028;2023-04-23T19:55:34;13.70;99.90
24103;DHT22;12278;53.058;9.028;2023-04-23T19:59:35;13.70;99.90
24103;DHT22;12278;53.058;9.028;2023-04-23T20:03:36;13.80;99.90
24103;DHT22;12278;53.058;9.028;2023-04-23T20:07:38;13.90;99.90
24103;DHT22;12278;53.058;9.028;2023-04-23T20:11:39;13.90;99.90
24103;DHT22;12278;53.058;9.028;2023-04-23T20:15:39;13.90;99.90
24103;DHT22;12278;53.058;9.028;2023-04-23T20:19:40;13.90;99.90
24103;DHT22;12278;53.058;9.028;2023-04-23T20:23:41;13.90;99.90
24103;DHT22;12278;53.058;9.028;2023-04-23T20:27:41;13.80;99.90
24103;DHT22;12278;53.058;9.028;2023-04-23T20:31:42;13.90;99.90
24103;DHT22;12278;53.058;9.028;2023-04-23T20:35:47;13.90;99.90
24103;DHT22;12278;53.058;9.028;2023-04-23T20:39:48;13.90;99.90
24103;DHT22;12278;53.058;9.028;2023-04-23T20:43:49;13.80;99.90
24103;DHT22;12278;53.058;9.028;2023-04-23T20:47:50;13.90;99.90
24103;DHT22;12278;53.058;9.028;2023-04-23T20:51:50;13.90;99.90
24103;DHT22;12278;53.058;9.028;2023-04-23T20:55:51;13.90;99.90
24103;DHT22;12278;53.058;9.028;2023-04-23T20:59:52;13.80;99.90
24103;DHT22;12278;53.058;9.028;2023-04-23T21:03:52;13.70;99.90
24103;DHT22;12278;53.058;9.028;2023-04-23T21:07:53;13.60;99.90
24103;DHT22;12278;53.058;9.028;2023-04-23T21:11:55;13.60;99.90
24103;DHT22;12278;53.058;9.028;2023-04-23T21:15:57;13.60;99.90
24103;DHT22;12278;53.058;9.028;2023-04-23T21:19:57;13.50;99.90
24103;DHT22;12278;53.058;9.028;2023-04-23T21:23:59;13.50;99.90
24103;DHT22;12278;53.058;9.028;2023-04-23T21:28:00;13.60;99.90
24103;DHT22;12278;53.058;9.028;2023-04-23T21:32:01;13.60;99.90
24103;DHT22;12278;53.058;9.028;2023-04-23T21:36:03;13.50;99.90
24103;DHT22;12278;53.058;9.028;2023-04-23T21:40:04;13.50;99.90
24103;DHT22;12278;53.058;9.028;2023-04-23T21:44:05;13.40;99.90
24103;DHT22;12278;53.058;9.028;2023-04-23T21:48:06;13.40;99.90
24103;DHT22;12278;53.058;9.028;2023-04-23T21:52:07;13.40;99.90
24103;DHT22;12278;53.058;9.028;2023-04-23T21:56:08;13.30;99.90
24103;DHT22;12278;53.058;9.028;2023-04-23T22:00:10;13.10;99.90
24103;DHT22;12278;53.058;9.028;2023-04-23T22:04:13;13.10;99.90
24103;DHT22;12278;53.058;9.028;2023-04-23T22:08:13;12.90;99.90
24103;DHT22;12278;53.058;9.028;2023-04-23T22:12:15;13.00;99.90
24103;DHT22;12278;53.058;9.028;2023-04-23T22:16:19;12.90;99.90
24103;DHT22;12278;53.058;9.028;2023-04-23T22:20:21;13.00;99.90
24103;DHT22;12278;53.058;9.028;2023-04-23T22:24:23;12.90;99.90
24103;DHT22;12278;53.058;9.028;2023-04-23T22:28:23;12.80;99.90
24103;DHT22;12278;53.058;9.028;2023-04-23T22:32:24;12.70;99.90
24103;DHT22;12278;53.058;9.028;2023-04-23T22:36:25;12.70;99.90
24103;DHT22;12278;53.058;9.028;2023-04-23T22:40:27;12.70;99.90
24103;DHT22;12278;53.058;9.028;2023-04-23T22:44:27;12.70;99.90
24103;DHT22;12278;53.058;9.028;2023-04-23T22:48:28;12.60;99.90
24103;DHT22;12278;53.058;9.028;2023-04-23T22:52:30;12.60;99.90
24103;DHT22;12278;53.058;9.028;2023-04-23T22:56:31;12.60;99.90
24103;DHT22;12278;53.058;9.028;2023-04-23T23:00:31;12.60;99.90
24103;DHT22;12278;53.058;9.028;2023-04-23T23:04:32;12.60;99.90
24103;DHT22;12278;53.058;9.028;2023-04-23T23:08:36;12.50;99.90
24103;DHT22;12278;53.058;9.028;2023-04-23T23:12:37;12.40;99.90
24103;DHT22;12278;53.058;9.028;2023-04-23T23:16:38;12.40;99.90
24103;DHT22;12278;53.058;9.028;2023-04-23T23:20:39;12.40;99.90
24103;DHT22;12278;53.058;9.028;2023-04-23T23:24:40;12.30;99.90
24103;DHT22;12278;53.058;9.028;2023-04-23T23:28:41;12.30;99.90
24103;DHT22;12278;53.058;9.028;2023-04-23T23:32:41;12.20;99.90
24103;DHT22;12278;53.058;9.028;2023-04-23T23:36:42;12.30;99.90
24103;DHT22;12278;53.058;9.028;2023-04-23T23:40:44;12.30;99.90
24103;DHT22;12278;53.058;9.028;2023-04-23T23:44:45;12.20;99.90
24103;DHT22;12278;53.058;9.028;2023-04-23T23:48:46;12.20;99.90
24103;DHT22;12278;53.058;9.028;2023-04-23T23:52:46;12.20;99.90
24103;DHT22;12278;53.058;9.028;2023-04-23T23:56:47;12.20;99.90
